Time;durP1;ratioP1;P1;durP2;ratioP2;P2;SDS_P1;SDS_P2;PMS_P1;PMS_P2;Temp;Humidity;BMP_temperature;BMP_pressure;BME280_temperature;BME280_humidity;BME280_pressure;Samples;Min_cycle;Max_cycle;Signal;HPM_P1;HPM_P2
2022/10/15 00:02:07;;;;;;;46.03;24.60;;;;;;;9.10;100.00;100608.03;5053229;28;20043;-64
2022/10/15 00:04:33;;;;;;;34.70;20.90;;;;;;;9.03;100.00;100615.91;5052746;28;20028;-64
2022/10/15 00:06:58;;;;;;;33.45;20.45;;;;;;;9.00;100.00;100613.25;5053059;28;20460;-64
2022/10/15 00:09:24;;;;;;;40.58;24.30;;;;;;;9.17;100.00;100599.28;5052792;28;20025;-64
2022/10/15 00:11:50;;;;;;;38.83;23.67;;;;;;;9.10;100.00;100608.03;5052908;28;20029;-64
2022/10/15 00:14:15;;;;;;;35.67;20.98;;;;;;;9.14;100.00;100607.19;5053187;28;20021;-64
2022/10/15 00:16:40;;;;;;;34.28;21.33;;;;;;;9.14;100.00;100615.97;5052586;28;20452;-64
2022/10/15 00:19:06;;;;;;;37.05;21.83;;;;;;;9.18;100.00;100611.59;5052676;28;20368;-64
2022/10/15 00:21:31;;;;;;;34.28;20.45;;;;;;;9.26;100.00;100617.78;5052872;28;20049;-64
2022/10/15 00:23:57;;;;;;;34.50;21.08;;;;;;;9.21;100.00;100620.41;5052491;28;20446;-64
2022/10/15 00:26:25;;;;;;;34.00;20.70;;;;;;;9.30;100.00;100616.06;5053001;28;20108;-65
2022/10/15 00:28:53;;;;;;;35.40;21.02;;;;;;;9.35;100.00;100614.31;5052759;28;20056;-64
2022/10/15 00:31:19;;;;;;;56.25;35.97;;;;;;;9.63;100.00;100614.50;5052528;28;20049;-64
2022/10/15 00:33:47;;;;;;;53.03;33.20;;;;;;;9.73;100.00;100616.28;5052568;28;20020;-64
2022/10/15 00:36:18;;;;;;;67.78;40.70;;;;;;;10.01;100.00;100619.91;5052546;28;20529;-64
2022/10/15 00:38:44;;;;;;;64.65;40.08;;;;;;;10.03;100.00;100614.63;5048282;28;20071;-64
2022/10/15 00:41:28;;;;;;;69.55;42.42;;;;;;;10.15;100.00;100612.03;5051855;28;20072;-64
2022/10/15 00:43:57;;;;;;;73.25;42.53;;;;;;;10.19;100.00;100615.53;5049864;28;20017;-65
2022/10/15 00:46:36;;;;;;;70.13;42.78;;;;;;;10.24;100.00;100624.38;5052410;28;20037;-64
2022/10/15 00:49:12;;;;;;;73.70;43.15;;;;;;;10.30;100.00;100625.25;5052451;28;20032;-65
2022/10/15 00:51:46;;;;;;;70.57;42.67;;;;;;;10.34;100.00;100620.91;5052359;28;20440;-64
2022/10/15 00:54:13;;;;;;;70.90;43.03;;;;;;;10.36;100.00;100624.44;5052418;28;20087;-65
2022/10/15 00:56:42;;;;;;;78.50;45.05;;;;;;;10.40;100.00;100620.91;5052733;28;20392;-65
2022/10/15 00:59:09;;;;;;;80.85;46.40;;;;;;;10.47;100.00;100621.81;5052360;28;20495;-65
2022/10/15 01:01:35;;;;;;;76.22;45.08;;;;;;;10.51;100.00;100622.69;5052458;28;20040;-65
2022/10/15 01:04:01;;;;;;;76.88;45.60;;;;;;;10.53;100.00;100620.91;5051985;28;20032;-64
2022/10/15 01:06:27;;;;;;;78.13;46.95;;;;;;;10.55;100.00;100617.41;5052561;28;20040;-62
2022/10/15 01:08:53;;;;;;;76.07;46.63;;;;;;;10.56;100.00;100616.53;5052376;28;20025;-62
2022/10/15 01:11:35;;;;;;;72.20;45.22;;;;;;;10.61;100.00;100614.75;5052380;28;20025;-62
2022/10/15 01:14:40;;;;;;;72.88;45.80;;;;;;;10.64;100.00;100617.44;5050789;28;20029;-62
2022/10/15 01:17:17;;;;;;;70.13;45.55;;;;;;;10.71;100.00;100610.34;4971061;28;20047;-62
2022/10/15 01:20:00;;;;;;;69.43;45.88;;;;;;;10.73;100.00;100613.00;4971209;28;20035;-62
2022/10/15 01:22:37;;;;;;;67.57;45.28;;;;;;;10.75;100.00;100601.56;4971357;28;20049;-62
2022/10/15 01:25:53;;;;;;;70.53;46.53;;;;;;;10.78;100.00;100605.97;4967366;28;20094;-62
2022/10/15 01:28:50;;;;;;;69.32;47.10;;;;;;;10.86;100.00;100593.59;4894232;29;20132;-62
2022/10/15 01:31:34;;;;;;;66.28;45.95;;;;;;;10.89;100.00;100588.34;4885251;29;20045;-62
2022/10/15 01:34:03;;;;;;;63.10;44.03;;;;;;;10.92;100.00;100587.44;4887493;29;20048;-63
2022/10/15 01:36:33;;;;;;;66.93;46.03;;;;;;;10.94;100.00;100583.91;4884153;29;20045;-62
2022/10/15 01:39:13;;;;;;;65.25;45.88;;;;;;;10.97;100.00;100585.66;4887199;29;20040;-62
2022/10/15 01:41:43;;;;;;;64.75;45.30;;;;;;;11.00;100.00;100577.72;4885932;29;20465;-61
2022/10/15 01:44:20;;;;;;;65.47;46.00;;;;;;;11.06;100.00;100584.78;4885344;29;20574;-62
2022/10/15 01:46:53;;;;;;;64.15;44.78;;;;;;;11.04;100.00;100590.06;4885171;29;20041;-62
2022/10/15 01:49:25;;;;;;;63.22;44.97;;;;;;;11.08;100.00;100591.84;4886338;29;20041;-62
2022/10/15 01:51:54;;;;;;;61.88;44.45;;;;;;;11.09;100.00;100587.41;4884342;29;20053;-62
2022/10/15 01:54:23;;;;;;;59.63;42.90;;;;;;;11.09;100.00;100583.00;4949350;29;20494;-62
2022/10/15 01:56:50;;;;;;;59.47;42.92;;;;;;;11.09;100.00;100583.00;4955084;28;20039;-63
2022/10/15 01:59:22;;;;;;;60.03;43.00;;;;;;;11.10;100.00;100574.19;4955073;29;20498;-62
2022/10/15 02:01:48;;;;;;;58.50;42.85;;;;;;;11.08;100.00;100573.31;4955096;29;20195;-62
2022/10/15 02:04:18;;;;;;;57.75;42.45;;;;;;;11.11;100.00;100577.69;5031542;28;20446;-62
2022/10/15 02:06:48;;;;;;;57.97;41.13;;;;;;;11.11;100.00;100569.75;5055039;28;20029;-63
2022/10/15 02:09:28;;;;;;;56.30;41.08;;;;;;;11.11;100.00;100575.06;5054862;28;20136;-63
2022/10/15 02:12:10;;;;;;;57.03;41.63;;;;;;;11.11;100.00;100567.13;5055328;28;20104;-63
2022/10/15 02:15:04;;;;;;;59.10;41.10;;;;;;;11.11;100.00;100565.38;5052376;28;20025;-62
2022/10/15 02:17:41;;;;;;;55.97;40.47;;;;;;;11.09;100.00;100560.97;5051623;28;20112;-63
2022/10/15 02:20:33;;;;;;;55.50;41.28;;;;;;;11.10;100.00;100560.94;5055141;28;20048;-62
2022/10/15 02:23:06;;;;;;;57.70;40.60;;;;;;;11.09;100.00;100556.53;4966603;28;20035;-62
2022/10/15 02:25:32;;;;;;;;;;;;;;;11.08;100.00;100559.19;4974627;28;20034;-63
2022/10/15 02:27:58;;;;;;;55.53;40.72;;;;;;;11.08;100.00;100553.91;4973687;28;19991;-63
2022/10/15 02:30:26;;;;;;;56.63;40.17;;;;;;;11.08;100.00;100557.44;4973797;28;20050;-62
2022/10/15 02:32:57;;;;;;;59.20;42.05;;;;;;;11.09;100.00;100547.72;4974016;28;20390;-62
2022/10/15 02:35:23;;;;;;;57.63;42.17;;;;;;;11.09;100.00;100545.97;4973971;28;20039;-62
2022/10/15 02:37:52;;;;;;;60.83;42.38;;;;;;;11.11;100.00;100541.56;4957516;28;20406;-63
2022/10/15 02:40:26;;;;;;;59.03;41.28;;;;;;;11.13;100.00;100547.72;4973414;28;20081;-64
2022/10/15 02:42:51;;;;;;;61.90;43.53;;;;;;;11.15;100.00;100532.75;4973841;28;20038;-64
2022/10/15 02:45:16;;;;;;;60.22;42.38;;;;;;;11.13;100.00;100529.19;4973564;28;20178;-64
2022/10/15 02:47:42;;;;;;;60.58;42.30;;;;;;;11.14;100.00;100524.81;4973582;28;20054;-65
2022/10/15 02:50:07;;;;;;;59.85;41.53;;;;;;;11.14;100.00;100530.09;4973496;28;20039;-64
2022/10/15 02:52:33;;;;;;;59.25;42.03;;;;;;;11.16;100.00;100521.25;4973298;28;20122;-64
2022/10/15 02:54:58;;;;;;;58.38;41.60;;;;;;;11.16;100.00;100515.97;4973486;28;20058;-64
2022/10/15 02:57:23;;;;;;;60.10;42.47;;;;;;;11.18;100.00;100518.59;4973361;28;20023;-64
2022/10/15 02:59:49;;;;;;;63.15;42.50;;;;;;;11.20;100.00;100513.28;5009820;28;20101;-64
2022/10/15 03:02:14;;;;;;;60.08;42.33;;;;;;;11.18;100.00;100515.09;5054152;28;20017;-63
2022/10/15 03:04:39;;;;;;;63.40;43.03;;;;;;;11.21;100.00;100509.78;5054048;28;20514;-64
2022/10/15 03:07:05;;;;;;;62.88;42.45;;;;;;;11.19;100.00;100500.97;5053912;28;20056;-65
2022/10/15 03:09:30;;;;;;;61.38;42.45;;;;;;;11.16;100.00;100502.72;5054076;28;20108;-65
2022/10/15 03:11:55;;;;;;;61.90;42.65;;;;;;;11.14;100.00;100499.22;5049666;28;20074;-64
2022/10/15 03:14:20;;;;;;;61.70;41.28;;;;;;;11.13;100.00;100502.75;5054135;28;20021;-64
2022/10/15 03:16:46;;;;;;;61.67;41.17;;;;;;;11.10;100.00;100502.75;5053861;28;20472;-64
2022/10/15 03:19:11;;;;;;;59.53;39.85;;;;;;;11.08;100.00;100495.69;5053749;28;20032;-65
2022/10/15 03:21:36;;;;;;;61.03;41.03;;;;;;;11.09;100.00;100503.63;5053704;28;20028;-64
2022/10/15 03:24:02;;;;;;;61.03;40.13;;;;;;;11.12;100.00;100502.75;5053745;28;20065;-64
2022/10/15 03:26:27;;;;;;;58.85;38.70;;;;;;;11.15;100.00;100505.38;5053901;28;20029;-65
2022/10/15 03:28:53;;;;;;;66.75;41.33;;;;;;;11.14;100.00;100504.50;5053198;28;20020;-64
2022/10/15 03:31:18;;;;;;;66.00;40.28;;;;;;;11.18;100.00;100508.00;5053822;28;20376;-65
2022/10/15 03:33:43;;;;;;;65.20;39.85;;;;;;;11.21;100.00;100508.00;5053677;28;20025;-63
2022/10/15 03:36:09;;;;;;;66.82;39.67;;;;;;;11.23;100.00;100508.03;5053655;28;20127;-62
2022/10/15 03:38:34;;;;;;;65.05;40.33;;;;;;;11.24;100.00;100509.75;5053262;28;20047;-62
2022/10/15 03:40:59;;;;;;;64.05;39.25;;;;;;;11.26;100.00;100500.94;5053167;28;20040;-62
2022/10/15 03:43:25;;;;;;;63.30;39.17;;;;;;;11.29;100.00;100503.56;5053586;28;20087;-63
2022/10/15 03:45:52;;;;;;;63.78;38.65;;;;;;;11.27;100.00;100499.16;5053356;28;20029;-62
2022/10/15 03:48:18;;;;;;;70.13;39.63;;;;;;;11.27;100.00;100494.78;5053136;28;20036;-62
2022/10/15 03:50:45;;;;;;;63.42;37.90;;;;;;;11.30;100.00;100489.47;5053446;28;20029;-63
2022/10/15 03:53:10;;;;;;;67.00;38.10;;;;;;;11.27;100.00;100480.63;5053005;28;20021;-63
2022/10/15 03:55:36;;;;;;;66.43;38.42;;;;;;;11.23;100.00;100489.50;5053608;28;20032;-62
2022/10/15 03:58:01;;;;;;;65.53;37.70;;;;;;;11.24;100.00;100491.25;5053223;28;20443;-63
2022/10/15 04:00:27;;;;;;;69.13;37.88;;;;;;;11.20;100.00;100485.09;5052812;28;20104;-62
2022/10/15 04:02:52;;;;;;;71.22;38.55;;;;;;;11.26;100.00;100487.72;5053144;28;20029;-62
2022/10/15 04:05:19;;;;;;;68.35;38.00;;;;;;;11.28;100.00;100500.94;5053371;28;20021;-63
2022/10/15 04:07:44;;;;;;;69.40;38.45;;;;;;;11.26;100.00;100493.00;5052750;28;20479;-62
2022/10/15 04:10:10;;;;;;;70.50;37.75;;;;;;;11.25;100.00;100495.66;5052730;28;20032;-62
2022/10/15 04:12:35;;;;;;;72.72;38.95;;;;;;;11.24;100.00;100499.19;5052901;28;20021;-63
2022/10/15 04:15:00;;;;;;;76.50;39.20;;;;;;;11.28;100.00;100500.94;5052559;28;20032;-62
2022/10/15 04:17:25;;;;;;;74.00;37.15;;;;;;;11.31;100.00;100492.97;5052236;28;20095;-62
2022/10/15 04:19:51;;;;;;;73.90;38.92;;;;;;;11.37;100.00;100494.72;5052818;28;20048;-62
2022/10/15 04:22:16;;;;;;;78.75;39.63;;;;;;;11.39;100.00;100498.22;5052787;28;20379;-62
2022/10/15 04:24:41;;;;;;;74.07;38.38;;;;;;;11.42;100.00;100504.41;5053092;28;20475;-63
2022/10/15 04:27:07;;;;;;;74.78;38.72;;;;;;;11.46;100.00;100505.25;5052572;28;20029;-62
2022/10/15 04:29:32;;;;;;;77.80;38.67;;;;;;;11.50;100.00;100514.94;5052417;28;20025;-63
2022/10/15 04:31:58;;;;;;;75.68;38.97;;;;;;;11.55;100.00;100501.69;5052519;28;20045;-62
2022/10/15 04:34:24;;;;;;;77.13;39.65;;;;;;;11.57;100.00;100503.44;5052842;28;20036;-62
2022/10/15 04:36:49;;;;;;;73.07;38.90;;;;;;;11.60;100.00;100497.25;5052638;28;20061;-62
2022/10/15 04:39:15;;;;;;;80.18;39.63;;;;;;;11.61;100.00;100491.94;5034424;28;20032;-63
2022/10/15 04:41:40;;;;;;;75.00;38.17;;;;;;;11.62;100.00;100493.72;5052447;28;20112;-62
2022/10/15 04:44:05;;;;;;;76.05;38.00;;;;;;;11.63;100.00;100491.94;5034431;28;20472;-63
2022/10/15 04:46:31;;;;;;;76.03;37.40;;;;;;;11.63;100.00;100489.28;5052760;28;20468;-63
2022/10/15 04:48:57;;;;;;;73.00;37.78;;;;;;;11.64;100.00;100491.94;5052460;28;20483;-62
2022/10/15 04:51:24;;;;;;;78.57;38.22;;;;;;;11.64;100.00;100493.72;5052379;28;20067;-63
2022/10/15 04:53:50;;;;;;;74.65;38.13;;;;;;;11.64;100.00;100493.72;5052506;28;20072;-63
2022/10/15 04:56:18;;;;;;;74.80;38.60;;;;;;;11.65;100.00;100490.19;5052137;28;20053;-63
2022/10/15 04:58:45;;;;;;;75.38;37.90;;;;;;;11.65;100.00;100487.53;5049465;28;20025;-63
2022/10/15 05:01:13;;;;;;;70.78;36.25;;;;;;;11.67;100.00;100485.75;5049330;28;20107;-63
2022/10/15 05:03:41;;;;;;;69.35;36.60;;;;;;;11.68;100.00;100487.50;5049977;28;20388;-62
2022/10/15 05:06:18;;;;;;;75.60;37.17;;;;;;;11.70;100.00;100493.66;5052152;28;20029;-64
2022/10/15 05:08:44;;;;;;;68.07;36.35;;;;;;;11.70;100.00;100488.38;5049265;28;20037;-63
2022/10/15 05:11:13;;;;;;;68.75;36.05;;;;;;;11.73;100.00;100490.13;5034615;28;20025;-62
2022/10/15 05:13:38;;;;;;;61.92;32.63;;;;;;;11.72;100.00;100486.56;5048655;28;20674;-62
2022/10/15 05:16:13;;;;;;;61.20;33.13;;;;;;;11.77;100.00;100486.56;5052207;28;20490;-63
2022/10/15 05:18:39;;;;;;;56.70;31.27;;;;;;;11.72;100.00;100497.16;5048442;28;20036;-63
2022/10/15 05:21:05;;;;;;;56.53;32.28;;;;;;;11.69;100.00;100498.09;5052137;28;20430;-62
2022/10/15 05:23:31;;;;;;;56.45;30.75;;;;;;;11.66;100.00;100497.22;5052062;28;20021;-62
2022/10/15 05:26:00;;;;;;;54.85;30.65;;;;;;;11.66;100.00;100497.22;5052371;28;20033;-63
2022/10/15 05:28:25;;;;;;;54.72;30.13;;;;;;;11.68;100.00;100506.03;5053411;28;20028;-63
2022/10/15 05:30:53;;;;;;;53.08;30.85;;;;;;;11.69;100.00;100499.84;5055993;28;20395;-63
2022/10/15 05:33:19;;;;;;;54.88;30.08;;;;;;;11.70;100.00;100488.38;5038749;28;20028;-62
2022/10/15 05:35:45;;;;;;;53.63;30.83;;;;;;;11.66;100.00;100491.91;5056860;28;20020;-63
2022/10/15 05:38:10;;;;;;;51.05;29.27;;;;;;;11.69;100.00;100507.78;5017835;28;20038;-62
2022/10/15 05:40:36;;;;;;;54.42;30.40;;;;;;;11.68;100.00;100503.41;5052100;28;20440;-62
2022/10/15 05:43:01;;;;;;;52.15;28.85;;;;;;;11.67;100.00;100493.69;5055701;28;20033;-63
2022/10/15 05:45:26;;;;;;;51.97;30.13;;;;;;;11.66;100.00;100498.13;5055750;28;20025;-63
2022/10/15 05:47:55;;;;;;;51.90;30.63;;;;;;;11.66;100.00;100498.13;5055746;28;20037;-63
2022/10/15 05:50:21;;;;;;;52.35;30.15;;;;;;;11.66;100.00;100490.16;5055336;28;20491;-63
2022/10/15 05:52:46;;;;;;;50.78;29.67;;;;;;;11.69;100.00;100483.94;5055523;28;20426;-63
2022/10/15 05:55:12;;;;;;;54.28;30.67;;;;;;;11.68;100.00;100495.47;5055467;28;20021;-64
2022/10/15 05:57:37;;;;;;;52.75;30.27;;;;;;;11.68;100.00;100490.16;5055306;28;20071;-64
2022/10/15 06:00:05;;;;;;;53.72;30.17;;;;;;;11.69;100.00;100494.53;5055342;28;20382;-64
2022/10/15 06:02:30;;;;;;;50.25;29.67;;;;;;;11.68;100.00;100501.63;5055339;28;20025;-63
2022/10/15 06:04:55;;;;;;;50.20;29.05;;;;;;;11.69;100.00;100486.59;5055443;28;20532;-64
2022/10/15 06:07:20;;;;;;;51.80;29.38;;;;;;;11.70;100.00;100493.66;5055258;28;20483;-64
2022/10/15 06:09:46;;;;;;;51.15;29.73;;;;;;;11.68;100.00;100492.81;5055057;28;20044;-64
2022/10/15 06:12:11;;;;;;;50.45;29.05;;;;;;;11.67;100.00;100493.69;5055028;28;20017;-63
2022/10/15 06:14:36;;;;;;;51.15;29.75;;;;;;;11.66;100.00;100489.28;5054988;28;20023;-63
2022/10/15 06:17:02;;;;;;;50.75;30.15;;;;;;;11.67;100.00;100493.69;5054830;28;20024;-63
2022/10/15 06:19:27;;;;;;;53.85;29.90;;;;;;;11.68;100.00;100490.16;5055106;28;20044;-63
2022/10/15 06:21:52;;;;;;;50.28;29.30;;;;;;;11.69;100.00;100486.59;5054988;28;20487;-64
2022/10/15 06:24:17;;;;;;;52.10;31.02;;;;;;;11.69;100.00;100498.09;5054815;28;20475;-64
2022/10/15 06:26:43;;;;;;;53.13;30.67;;;;;;;11.69;100.00;100498.09;5054972;28;20037;-63
2022/10/15 06:29:09;;;;;;;55.10;30.40;;;;;;;11.71;100.00;100490.13;5054711;28;20020;-63
2022/10/15 06:31:34;;;;;;;52.90;31.70;;;;;;;11.72;100.00;100491.00;5054518;28;20431;-63
2022/10/15 06:33:59;;;;;;;52.38;31.25;;;;;;;11.72;100.00;100497.16;5054622;28;20029;-64
2022/10/15 06:36:25;;;;;;;58.00;34.15;;;;;;;11.71;100.00;100498.09;5054916;28;20090;-63
2022/10/15 06:38:50;;;;;;;57.70;33.38;;;;;;;11.71;100.00;100494.53;5035949;28;20055;-64
2022/10/15 06:41:15;;;;;;;56.90;32.75;;;;;;;11.71;100.00;100492.78;5054476;28;20106;-64
2022/10/15 06:43:41;;;;;;;59.13;34.55;;;;;;;11.71;100.00;100484.84;5054491;28;20081;-64
2022/10/15 06:46:06;;;;;;;63.92;35.10;;;;;;;11.73;100.00;100488.34;5054593;28;20021;-64
2022/10/15 06:48:32;;;;;;;59.45;34.65;;;;;;;11.72;100.00;100486.56;5054353;28;20072;-63
2022/10/15 06:50:59;;;;;;;56.22;34.08;;;;;;;11.72;100.00;100486.56;5054276;28;20391;-63
2022/10/15 06:53:25;;;;;;;58.58;34.47;;;;;;;11.70;100.00;100488.38;5054281;28;20045;-64
2022/10/15 06:55:50;;;;;;;57.00;33.78;;;;;;;11.66;100.00;100481.31;5054313;28;20443;-63
2022/10/15 06:58:16;;;;;;;57.13;35.17;;;;;;;11.65;100.00;100491.06;5054160;28;20017;-64
2022/10/15 07:00:41;;;;;;;56.60;33.90;;;;;;;11.63;100.00;100491.94;5054400;28;20052;-63
2022/10/15 07:03:07;;;;;;;55.20;32.95;;;;;;;11.62;100.00;100495.47;5054129;28;20028;-63
2022/10/15 07:05:33;;;;;;;52.75;31.17;;;;;;;11.60;100.00;100487.53;5054229;28;20078;-63
2022/10/15 07:07:59;;;;;;;51.80;30.58;;;;;;;11.56;100.00;100479.63;5054263;28;20029;-63
2022/10/15 07:10:25;;;;;;;51.15;31.58;;;;;;;11.55;100.00;100483.16;5054064;28;20051;-63
2022/10/15 07:12:51;;;;;;;52.10;30.60;;;;;;;11.55;100.00;100492.00;5053916;28;20029;-63
2022/10/15 07:15:16;;;;;;;50.25;29.58;;;;;;;11.58;100.00;100496.41;5054125;28;20361;-63
2022/10/15 07:17:55;;;;;;;51.25;29.95;;;;;;;11.60;100.00;100505.19;5053798;28;20120;-63
2022/10/15 07:20:21;;;;;;;51.78;30.40;;;;;;;11.66;100.00;100505.16;5051522;28;20028;-63
2022/10/15 07:22:47;;;;;;;50.30;29.15;;;;;;;11.71;100.00;100502.47;5053827;28;20071;-63
2022/10/15 07:25:13;;;;;;;49.25;28.40;;;;;;;11.78;100.00;100497.16;5053982;28;20107;-63
2022/10/15 07:27:39;;;;;;;48.35;27.90;;;;;;;11.90;100.00;100477.66;5053819;28;20478;-63
2022/10/15 07:30:06;;;;;;;47.72;27.55;;;;;;;12.05;100.00;100474.03;5053311;28;20104;-64
2022/10/15 07:32:31;;;;;;;46.67;27.83;;;;;;;12.21;100.00;100473.03;5053537;28;20380;-65
2022/10/15 07:34:56;;;;;;;44.90;26.38;;;;;;;12.30;100.00;100466.75;5053362;28;20016;-64
2022/10/15 07:37:22;;;;;;;46.42;26.27;;;;;;;12.31;100.00;100468.53;5053441;28;20037;-61
2022/10/15 07:39:47;;;;;;;41.47;24.00;;;;;;;12.25;100.00;100465.06;5053409;28;20045;-62
2022/10/15 07:42:12;;;;;;;39.75;23.33;;;;;;;12.19;100.00;100469.50;5053276;28;20033;-62
2022/10/15 07:44:37;;;;;;;39.67;23.77;;;;;;;12.16;100.00;100463.38;5053376;28;20025;-62
2022/10/15 07:47:03;;;;;;;40.05;23.08;;;;;;;12.15;100.00;100465.13;5053572;28;20029;-61
2022/10/15 07:49:28;;;;;;;38.97;23.67;;;;;;;12.17;100.00;100471.31;5053051;28;20491;-62
2022/10/15 07:51:54;;;;;;;40.45;23.02;;;;;;;12.30;100.00;100464.09;5052755;28;20147;-61
2022/10/15 07:54:19;;;;;;;39.65;23.05;;;;;;;12.67;100.00;100447.00;5053492;28;20520;-62
2022/10/15 07:56:45;;;;;;;37.25;21.98;;;;;;;12.95;100.00;100458.16;5053061;28;20411;-63
2022/10/15 07:59:10;;;;;;;34.58;20.40;;;;;;;13.01;100.00;100457.22;5053234;28;20021;-62
2022/10/15 08:01:35;;;;;;;33.63;19.48;;;;;;;13.06;100.00;100452.72;5053118;28;20093;-62
2022/10/15 08:04:00;;;;;;;31.83;18.05;;;;;;;13.11;100.00;100445.59;5053043;28;20021;-62
2022/10/15 08:06:26;;;;;;;29.80;17.33;;;;;;;13.16;100.00;100453.50;5052841;28;20364;-62
2022/10/15 08:08:51;;;;;;;30.58;17.52;;;;;;;13.19;100.00;100449.03;5052670;28;20033;-62
2022/10/15 08:11:17;;;;;;;31.50;17.23;;;;;;;13.32;100.00;100444.44;5033040;28;20044;-62
2022/10/15 08:13:43;;;;;;;30.20;16.27;;;;;;;13.39;100.00;100435.50;5052747;28;20115;-61
2022/10/15 08:16:10;;;;;;;27.85;15.45;;;;;;;13.34;100.00;100433.78;5052759;28;20025;-62
2022/10/15 08:31:18;;;;;;;24.42;12.05;;;;;;;13.94;100.00;100441.78;5103461;27;20372;-63
2022/10/15 08:33:45;;;;;;;23.83;11.00;;;;;;;13.93;100.00;100441.81;5069812;28;20025;-63
2022/10/15 08:36:10;;;;;;;22.23;10.60;;;;;;;13.81;100.00;100440.22;5069989;28;20029;-63
2022/10/15 08:38:36;;;;;;;22.98;10.70;;;;;;;13.80;100.00;100432.28;5069692;28;20383;-63
2022/10/15 08:41:04;;;;;;;23.30;10.57;;;;;;;13.73;100.00;100432.41;5069956;28;20025;-63
2022/10/15 08:43:39;;;;;;;22.95;10.68;;;;;;;13.75;100.00;100427.06;5069753;28;20028;-63
2022/10/15 08:46:17;;;;;;;22.40;10.20;;;;;;;13.80;100.00;100413.69;5066197;28;20118;-64
2022/10/15 08:48:47;;;;;;;23.13;10.30;;;;;;;13.89;100.00;100421.50;5067295;28;20028;-64
2022/10/15 08:51:27;;;;;;;21.77;9.93;;;;;;;13.99;100.00;100419.59;5069341;28;20131;-63
2022/10/15 08:53:56;;;;;;;21.77;9.38;;;;;;;14.02;100.00;100416.88;5069614;28;20017;-63
2022/10/15 08:56:48;;;;;;;20.67;8.73;;;;;;;14.02;100.00;100416.88;5069373;28;20032;-63
2022/10/15 08:59:19;;;;;;;20.77;8.50;;;;;;;13.92;100.00;100410.81;5066785;28;20053;-63
2022/10/15 09:02:03;;;;;;;21.27;8.18;;;;;;;13.90;100.00;100396.69;5069299;28;20035;-63
2022/10/15 09:04:53;;;;;;;21.95;7.85;;;;;;;14.02;100.00;100398.28;5069316;28;20028;-63
2022/10/15 09:07:41;;;;;;;20.38;8.00;;;;;;;14.11;100.00;100390.13;5067743;28;20108;-69
2022/10/15 09:10:26;;;;;;;19.77;7.72;;;;;;;14.22;100.00;100387.31;5069228;28;20023;-67
2022/10/15 09:13:01;;;;;;;20.20;7.53;;;;;;;14.27;100.00;100388.09;5069096;28;20104;-68
2022/10/15 09:15:31;;;;;;;20.80;7.78;;;;;;;14.25;100.00;100388.13;5069446;28;20029;-67
2022/10/15 09:17:57;;;;;;;20.20;7.32;;;;;;;14.12;100.00;100386.59;5069077;28;20020;-67
2022/10/15 09:20:29;;;;;;;19.98;7.53;;;;;;;14.08;100.00;100385.78;5068578;28;20029;-68
2022/10/15 09:22:54;;;;;;;20.45;7.90;;;;;;;14.05;100.00;100384.94;5068895;28;20048;-67
2022/10/15 09:25:22;;;;;;;19.58;7.60;;;;;;;14.06;100.00;100384.03;5068808;28;20467;-64
2022/10/15 09:27:49;;;;;;;20.42;7.10;;;;;;;14.15;100.00;100385.66;5068919;28;20438;-64
2022/10/15 09:30:32;;;;;;;20.05;7.32;;;;;;;14.23;100.00;100386.41;5066449;28;20372;-64
2022/10/15 09:33:17;;;;;;;19.48;6.90;;;;;;;14.12;100.00;100383.91;5055337;28;20033;-64
2022/10/15 09:35:54;;;;;;;19.00;6.65;;;;;;;14.05;100.00;100380.50;5052683;28;20033;-64
2022/10/15 09:38:49;;;;;;;18.85;6.90;;;;;;;14.05;100.00;100377.84;5055322;28;20551;-64
2022/10/15 09:41:27;;;;;;;20.60;7.35;;;;;;;13.84;100.00;100372.91;5052698;28;20025;-68
2022/10/15 09:43:57;;;;;;;20.52;7.28;;;;;;;13.75;100.00;100377.44;5055249;28;20025;-68
2022/10/15 09:46:22;;;;;;;20.17;7.75;;;;;;;13.62;100.00;100369.72;5055027;28;20029;-68
2022/10/15 09:49:00;;;;;;;20.48;7.57;;;;;;;13.56;100.00;100376.88;5055081;28;20103;-69
2022/10/15 09:51:37;;;;;;;22.58;7.82;;;;;;;13.58;100.00;100372.41;5054961;28;20025;-69
2022/10/15 09:54:19;;;;;;;20.73;7.90;;;;;;;13.57;100.00;100368.00;5051029;28;20090;-67
2022/10/15 09:56:51;;;;;;;21.55;7.47;;;;;;;13.59;100.00;100365.34;5052999;28;20033;-69
2022/10/15 09:59:19;;;;;;;21.57;7.83;;;;;;;13.60;100.00;100362.66;5055133;28;20063;-67
2022/10/15 10:02:02;;;;;;;20.52;7.25;;;;;;;13.66;100.00;100355.47;5054889;28;20564;-68
2022/10/15 10:04:30;;;;;;;20.88;8.18;;;;;;;13.76;100.00;100359.72;5054747;28;20484;-68
2022/10/15 10:07:00;;;;;;;19.98;7.57;;;;;;;13.73;100.00;100357.13;5054548;28;20032;-68
2022/10/15 10:09:38;;;;;;;19.15;6.85;;;;;;;13.68;100.00;100354.53;5055089;28;20353;-68
2022/10/15 10:12:07;;;;;;;20.60;7.22;;;;;;;13.68;100.00;100359.00;5050978;28;20029;-69
2022/10/15 10:14:41;;;;;;;19.92;7.25;;;;;;;13.75;100.00;100352.69;5050635;28;20021;-69
2022/10/15 10:17:17;;;;;;;19.00;6.93;;;;;;;13.76;100.00;100346.44;5051041;28;20036;-69
2022/10/15 10:19:44;;;;;;;18.50;7.10;;;;;;;13.80;100.00;100353.47;5054275;28;20446;-68
2022/10/15 10:22:14;;;;;;;19.52;7.00;;;;;;;13.91;100.00;100350.66;5054660;28;20478;-69
2022/10/15 10:24:40;;;;;;;19.88;7.18;;;;;;;14.02;100.00;100358.41;5054389;28;20051;-69
2022/10/15 10:27:18;;;;;;;19.30;7.25;;;;;;;14.03;100.00;100354.88;5054261;28;20016;-68
2022/10/15 10:30:00;;;;;;;16.85;5.60;;;;;;;13.97;100.00;100353.19;5051850;28;20064;-69
2022/10/15 10:32:30;;;;;;;17.85;6.00;;;;;;;13.98;100.00;100356.72;5054594;28;20032;-68
2022/10/15 10:34:56;;;;;;;15.65;5.22;;;;;;;13.99;100.00;100362.00;5054181;28;20024;-67
2022/10/15 10:37:21;;;;;;;17.35;5.32;;;;;;;14.09;100.00;100360.06;5054137;28;20060;-67
2022/10/15 10:39:56;;;;;;;16.83;5.05;;;;;;;14.15;100.00;100364.41;5054333;28;20067;-67
2022/10/15 10:42:30;;;;;;;13.57;4.68;;;;;;;14.15;100.00;100364.41;5053667;28;20025;-68
2022/10/15 10:45:26;;;;;;;15.98;4.90;;;;;;;14.20;100.00;100358.09;5054374;28;20040;-67
2022/10/15 10:47:51;;;;;;;11.90;4.50;;;;;;;14.32;100.00;100362.31;5052697;28;20024;-68
2022/10/15 10:50:26;;;;;;;11.80;4.32;;;;;;;14.42;100.00;100368.34;5052926;28;20115;-68
2022/10/15 10:52:52;;;;;;;13.43;4.80;;;;;;;14.41;100.00;100362.13;5044770;28;20033;-64
2022/10/15 10:55:23;;;;;;;13.30;4.80;;;;;;;14.42;100.00;100355.03;5042740;28;20032;-63
2022/10/15 10:57:58;;;;;;;16.73;6.50;;;;;;;14.43;100.00;100349.69;5049900;28;20021;-63
2022/10/15 11:00:45;;;;;;;16.30;6.47;;;;;;;14.52;100.00;100351.28;5048188;28;20028;-62
2022/10/15 11:03:31;;;;;;;15.60;5.85;;;;;;;14.56;100.00;100344.13;5043522;28;20506;-63
2022/10/15 11:06:26;;;;;;;14.95;5.60;;;;;;;14.60;100.00;100337.81;5047836;28;20024;-62
2022/10/15 11:08:57;;;;;;;15.15;5.80;;;;;;;14.55;100.00;100339.72;5047096;28;20056;-63
2022/10/15 11:11:30;;;;;;;17.48;6.57;;;;;;;14.65;100.00;100343.97;5047400;28;20032;-62
2022/10/15 11:14:20;;;;;;;17.40;6.38;;;;;;;14.83;100.00;100342.72;5047477;28;20028;-64
2022/10/15 11:16:56;;;;;;;16.13;6.00;;;;;;;14.92;100.00;100331.00;5046935;28;20033;-63
2022/10/15 11:19:43;;;;;;;16.15;6.00;;;;;;;15.15;100.00;100344.66;5045623;28;20033;-61
2022/10/15 11:22:38;;;;;;;16.20;5.70;;;;;;;15.20;100.00;100341.03;5048336;28;20489;-63
2022/10/15 11:25:11;;;;;;;14.73;5.90;;;;;;;15.22;100.00;100334.75;5045808;28;20090;-63
2022/10/15 11:27:50;;;;;;;13.90;4.95;;;;;;;15.20;100.00;100330.38;5045464;28;20048;-64
2022/10/15 11:30:40;;;;;;;13.73;5.13;;;;;;;15.32;100.00;100332.78;5043463;28;20052;-63